sensor_id;sensor_type;location;lat;lon;timestamp;pressure;altitude;pressure_sealevel;temperature;humidity
7832;BME280;3961;42.058;25.586;2022-10-16T00:00:32;63355.53;;;10.11;100.00
7832;BME280;3961;42.058;25.586;2022-10-16T00:02:58;63309.25;;;9.75;100.00
7832;BME280;3961;42.058;25.586;2022-10-16T00:05:23;63338.13;;;10.01;100.00
7832;BME280;3961;42.058;25.586;2022-10-16T00:07:49;63330.16;;;9.89;100.00
7832;BME280;3961;42.058;25.586;2022-10-16T00:10:15;63353.56;;;10.07;100.00
7832;BME280;3961;42.058;25.586;2022-10-16T00:12:40;63320.00;;;9.83;100.00
7832;BME280;3961;42.058;25.586;2022-10-16T00:15:06;63300.38;;;9.65;100.00
7832;BME280;3961;42.058;25.586;2022-10-16T00:17:36;63310.53;;;9.72;100.00
7832;BME280;3961;42.058;25.586;2022-10-16T00:20:02;63302.47;;;9.65;100.00
7832;BME280;3961;42.058;25.586;2022-10-16T00:22:28;63290.00;;;9.56;100.00
7832;BME280;3961;42.058;25.586;2022-10-16T00:24:54;63288.25;;;9.55;100.00
7832;BME280;3961;42.058;25.586;2022-10-16T00:27:19;63266.13;;;9.33;100.00
7832;BME280;3961;42.058;25.586;2022-10-16T00:29:49;63286.28;;;9.51;100.00
7832;BME280;3961;42.058;25.586;2022-10-16T00:32:15;63298.66;;;9.64;100.00
7832;BME280;3961;42.058;25.586;2022-10-16T00:34:40;63283.66;;;9.51;100.00
7832;BME280;3961;42.058;25.586;2022-10-16T00:37:06;63270.50;;;9.34;100.00
7832;BME280;3961;42.058;25.586;2022-10-16T00:39:31;63241.78;;;9.16;100.00
7832;BME280;3961;42.058;25.586;2022-10-16T00:41:57;63265.06;;;9.27;100.00
7832;BME280;3961;42.058;25.586;2022-10-16T00:44:51;63255.41;;;9.26;100.00
7832;BME280;3961;42.058;25.586;2022-10-16T00:47:29;63255.72;;;9.24;100.00
7832;BME280;3961;42.058;25.586;2022-10-16T00:49:59;63250.53;;;9.19;100.00
7832;BME280;3961;42.058;25.586;2022-10-16T00:52:27;63247.66;;;9.17;100.00
7832;BME280;3961;42.058;25.586;2022-10-16T00:54:53;63247.06;;;9.16;100.00
7832;BME280;3961;42.058;25.586;2022-10-16T00:57:19;63264.97;;;9.32;100.00
7832;BME280;3961;42.058;25.586;2022-10-16T00:59:45;63258.72;;;9.22;100.00
7832;BME280;3961;42.058;25.586;2022-10-16T01:02:13;63262.06;;;9.29;100.00
7832;BME280;3961;42.058;25.586;2022-10-16T01:04:42;63246.16;;;9.18;100.00
7832;BME280;3961;42.058;25.586;2022-10-16T01:10:04;63240.41;;;9.13;100.00
7832;BME280;3961;42.058;25.586;2022-10-16T01:12:48;63244.66;;;9.19;100.00
7832;BME280;3961;42.058;25.586;2022-10-16T01:15:22;63234.41;;;9.05;100.00
7832;BME280;3961;42.058;25.586;2022-10-16T01:18:11;63226.56;;;9.00;100.00
7832;BME280;3961;42.058;25.586;2022-10-16T01:28:41;63223.69;;;8.98;100.00
7832;BME280;3961;42.058;25.586;2022-10-16T01:31:10;63231.75;;;9.05;100.00
7832;BME280;3961;42.058;25.586;2022-10-16T01:33:42;63228.31;;;9.02;100.00
7832;BME280;3961;42.058;25.586;2022-10-16T01:36:13;63225.19;;;8.97;100.00
7832;BME280;3961;42.058;25.586;2022-10-16T01:38:40;63217.91;;;8.93;100.00
7832;BME280;3961;42.058;25.586;2022-10-16T01:41:15;63190.25;;;8.68;100.00
7832;BME280;3961;42.058;25.586;2022-10-16T01:43:48;63166.38;;;8.45;100.00
7832;BME280;3961;42.058;25.586;2022-10-16T01:46:17;63166.06;;;8.47;100.00
7832;BME280;3961;42.058;25.586;2022-10-16T01:48:44;63184.84;;;8.61;100.00
7832;BME280;3961;42.058;25.586;2022-10-16T01:51:12;63189.09;;;8.67;100.00
7832;BME280;3961;42.058;25.586;2022-10-16T01:53:45;63188.78;;;8.69;100.00
7832;BME280;3961;42.058;25.586;2022-10-16T01:56:12;63193.16;;;8.71;100.00
7832;BME280;3961;42.058;25.586;2022-10-16T01:58:47;63194.63;;;8.70;100.00
7832;BME280;3961;42.058;25.586;2022-10-16T02:01:18;63228.63;;;9.00;100.00
7832;BME280;3961;42.058;25.586;2022-10-16T02:03:46;63231.63;;;8.98;100.00
7832;BME280;3961;42.058;25.586;2022-10-16T02:06:14;63195.78;;;8.71;100.00
7832;BME280;3961;42.058;25.586;2022-10-16T02:08:39;63195.44;;;8.73;100.00
7832;BME280;3961;42.058;25.586;2022-10-16T02:11:09;63200.63;;;8.77;100.00
7832;BME280;3961;42.058;25.586;2022-10-16T02:13:40;63192.34;;;8.68;100.00
7832;BME280;3961;42.058;25.586;2022-10-16T02:16:11;63157.75;;;8.37;100.00
7832;BME280;3961;42.058;25.586;2022-10-16T02:18:38;63161.22;;;8.40;100.00
7832;BME280;3961;42.058;25.586;2022-10-16T02:26:58;63132.28;;;8.20;100.00
7832;BME280;3961;42.058;25.586;2022-10-16T02:29:25;63172.63;;;8.55;100.00
7832;BME280;3961;42.058;25.586;2022-10-16T02:31:56;63176.44;;;8.56;100.00
7832;BME280;3961;42.058;25.586;2022-10-16T02:34:24;63166.63;;;8.48;100.00
7832;BME280;3961;42.058;25.586;2022-10-16T02:36:51;63170.66;;;8.51;100.00
7832;BME280;3961;42.058;25.586;2022-10-16T02:39:18;63176.44;;;8.56;100.00
7832;BME280;3961;42.058;25.586;2022-10-16T02:41:45;63187.47;;;8.61;100.00
7832;BME280;3961;42.058;25.586;2022-10-16T02:44:10;63170.91;;;8.54;100.00
7832;BME280;3961;42.058;25.586;2022-10-16T02:46:36;63166.97;;;8.46;100.00
7832;BME280;3961;42.058;25.586;2022-10-16T02:49:02;63147.28;;;8.33;100.00
7832;BME280;3961;42.058;25.586;2022-10-16T02:51:27;63146.13;;;8.32;100.00
7832;BME280;3961;42.058;25.586;2022-10-16T02:53:53;63136.06;;;8.21;100.00
7832;BME280;3961;42.058;25.586;2022-10-16T02:56:18;63134.34;;;8.19;100.00
7832;BME280;3961;42.058;25.586;2022-10-16T02:58:44;63108.78;;;7.94;100.00
7832;BME280;3961;42.058;25.586;2022-10-16T03:01:09;63096.09;;;7.83;100.00
7832;BME280;3961;42.058;25.586;2022-10-16T03:03:37;63090.00;;;7.80;100.00
7832;BME280;3961;42.058;25.586;2022-10-16T03:06:02;63101.28;;;7.88;100.00
7832;BME280;3961;42.058;25.586;2022-10-16T03:08:28;63081.16;;;7.70;100.00
7832;BME280;3961;42.058;25.586;2022-10-16T03:10:55;63078.84;;;7.68;100.00
7832;BME280;3961;42.058;25.586;2022-10-16T03:13:20;63056.63;;;7.51;100.00
7832;BME280;3961;42.058;25.586;2022-10-16T03:15:46;63056.63;;;7.51;100.00
7832;BME280;3961;42.058;25.586;2022-10-16T03:18:11;63069.28;;;7.62;100.00
7832;BME280;3961;42.058;25.586;2022-10-16T03:20:37;63086.00;;;7.77;100.00
7832;BME280;3961;42.058;25.586;2022-10-16T03:23:03;63071.84;;;7.66;100.00
7832;BME280;3961;42.058;25.586;2022-10-16T03:25:28;63097.03;;;7.82;100.00
7832;BME280;3961;42.058;25.586;2022-10-16T03:27:54;63089.78;;;7.78;100.00
7832;BME280;3961;42.058;25.586;2022-10-16T03:30:19;63104.75;;;7.91;100.00
7832;BME280;3961;42.058;25.586;2022-10-16T03:32:45;63096.34;;;7.86;100.00
7832;BME280;3961;42.058;25.586;2022-10-16T03:35:10;63099.22;;;7.88;100.00
7832;BME280;3961;42.058;25.586;2022-10-16T03:37:36;63088.31;;;7.79;100.00
7832;BME280;3961;42.058;25.586;2022-10-16T03:40:03;63083.13;;;7.74;100.00
7832;BME280;3961;42.058;25.586;2022-10-16T03:42:29;63095.53;;;7.83;100.00
7832;BME280;3961;42.058;25.586;2022-10-16T03:44:54;63101.88;;;7.88;100.00
7832;BME280;3961;42.058;25.586;2022-10-16T03:47:20;63105.66;;;7.89;100.00
7832;BME280;3961;42.058;25.586;2022-10-16T03:49:47;63094.38;;;7.82;100.00
7832;BME280;3961;42.058;25.586;2022-10-16T03:52:13;63105.56;;;7.94;100.00
7832;BME280;3961;42.058;25.586;2022-10-16T03:54:38;63115.69;;;8.00;100.00
7832;BME280;3961;42.058;25.586;2022-10-16T03:57:04;63105.66;;;7.89;100.00
7832;BME280;3961;42.058;25.586;2022-10-16T03:59:29;63088.06;;;7.76;100.00
7832;BME280;3961;42.058;25.586;2022-10-16T04:01:55;63107.28;;;7.95;100.00
7832;BME280;3961;42.058;25.586;2022-10-16T04:04:20;63094.38;;;7.82;100.00
7832;BME280;3961;42.058;25.586;2022-10-16T04:06:45;63080.47;;;7.74;100.00
7832;BME280;3961;42.058;25.586;2022-10-16T04:09:11;63091.41;;;7.84;100.00
7832;BME280;3961;42.058;25.586;2022-10-16T04:11:36;63083.47;;;7.72;100.00
7832;BME280;3961;42.058;25.586;2022-10-16T04:14:02;63066.09;;;7.61;100.00
7832;BME280;3961;42.058;25.586;2022-10-16T04:16:28;63080.81;;;7.72;100.00
7832;BME280;3961;42.058;25.586;2022-10-16T04:18:53;63086.56;;;7.77;100.00
7832;BME280;3961;42.058;25.586;2022-10-16T04:21:19;63107.28;;;7.95;100.00
7832;BME280;3961;42.058;25.586;2022-10-16T04:23:44;63120.88;;;8.05;100.00
7832;BME280;3961;42.058;25.586;2022-10-16T04:26:10;63104.16;;;7.90;100.00
7832;BME280;3961;42.058;25.586;2022-10-16T04:28:36;63072.41;;;7.67;100.00
7832;BME280;3961;42.058;25.586;2022-10-16T04:31:04;63082.31;;;7.71;100.00
7832;BME280;3961;42.058;25.586;2022-10-16T04:33:29;63066.19;;;7.57;100.00
7832;BME280;3961;42.058;25.586;2022-10-16T04:35:59;63073.91;;;7.66;100.00
7832;BME280;3961;42.058;25.586;2022-10-16T04:38:25;63065.28;;;7.58;100.00
7832;BME280;3961;42.058;25.586;2022-10-16T04:40:51;63057.31;;;7.47;100.00
7832;BME280;3961;42.058;25.586;2022-10-16T04:43:17;63069.06;;;7.59;100.00
7832;BME280;3961;42.058;25.586;2022-10-16T04:45:42;63051.47;;;7.46;100.00
7832;BME280;3961;42.058;25.586;2022-10-16T04:48:08;63060.09;;;7.54;100.00
7832;BME280;3961;42.058;25.586;2022-10-16T04:50:33;63058.94;;;7.53;100.00
7832;BME280;3961;42.058;25.586;2022-10-16T04:52:59;63079.66;;;7.71;100.00
7832;BME280;3961;42.058;25.586;2022-10-16T04:55:24;63079.31;;;7.73;100.00
7832;BME280;3961;42.058;25.586;2022-10-16T04:57:50;63086.25;;;7.79;100.00
7832;BME280;3961;42.058;25.586;2022-10-16T05:00:15;63092.31;;;7.82;100.00
7832;BME280;3961;42.058;25.586;2022-10-16T05:02:41;63107.28;;;7.95;100.00
7832;BME280;3961;42.058;25.586;2022-10-16T05:05:06;63129.16;;;8.15;100.00
7832;BME280;3961;42.058;25.586;2022-10-16T05:07:32;63137.81;;;8.22;100.00
7832;BME280;3961;42.058;25.586;2022-10-16T05:09:57;63126.84;;;8.13;100.00
7832;BME280;3961;42.058;25.586;2022-10-16T05:12:23;63115.94;;;8.03;100.00
7832;BME280;3961;42.058;25.586;2022-10-16T05:14:48;63124.78;;;8.13;100.00
7832;BME280;3961;42.058;25.586;2022-10-16T05:17:14;63126.63;;;8.10;100.00
7832;BME280;3961;42.058;25.586;2022-10-16T05:19:39;63133.53;;;8.16;100.00
7832;BME280;3961;42.058;25.586;2022-10-16T05:22:05;63135.25;;;8.18;100.00
7832;BME280;3961;42.058;25.586;2022-10-16T05:24:30;63130.66;;;8.14;100.00
7832;BME280;3961;42.058;25.586;2022-10-16T05:26:56;63162.13;;;8.39;100.00
7832;BME280;3961;42.058;25.586;2022-10-16T05:29:21;63165.84;;;8.45;100.00
7832;BME280;3961;42.058;25.586;2022-10-16T05:31:50;63166.63;;;8.48;100.00
7832;BME280;3961;42.058;25.586;2022-10-16T05:34:15;63167.69;;;8.53;100.00
7832;BME280;3961;42.058;25.586;2022-10-16T05:36:41;63168.47;;;8.45;100.00
7832;BME280;3961;42.058;25.586;2022-10-16T05:39:06;63186.47;;;8.67;100.00
7832;BME280;3961;42.058;25.586;2022-10-16T05:41:32;63193.81;;;8.67;100.00
7832;BME280;3961;42.058;25.586;2022-10-16T05:43:57;63197.75;;;8.75;100.00
7832;BME280;3961;42.058;25.586;2022-10-16T05:46:23;63213.31;;;8.89;100.00
7832;BME280;3961;42.058;25.586;2022-10-16T05:48:51;63215.94;;;8.89;100.00
7832;BME280;3961;42.058;25.586;2022-10-16T05:51:17;63222.88;;;8.95;100.00
7832;BME280;3961;42.058;25.586;2022-10-16T05:53:43;63208.69;;;8.85;100.00
7832;BME280;3961;42.058;25.586;2022-10-16T05:56:10;63237.88;;;9.08;100.00
7832;BME280;3961;42.058;25.586;2022-10-16T05:58:37;63242.47;;;9.12;100.00
7832;BME280;3961;42.058;25.586;2022-10-16T06:01:11;63260.81;;;9.33;100.00
7832;BME280;3961;42.058;25.586;2022-10-16T06:03:37;63291.72;;;9.58;100.00
7832;BME280;3961;42.058;25.586;2022-10-16T06:06:17;63319.75;;;9.80;100.00
7832;BME280;3961;42.058;25.586;2022-10-16T06:08:44;63326.91;;;9.89;100.00
7832;BME280;3961;42.058;25.586;2022-10-16T06:11:23;63340.19;;;10.00;100.00
7832;BME280;3961;42.058;25.586;2022-10-16T06:13:52;63352.06;;;10.08;100.00
7832;BME280;3961;42.058;25.586;2022-10-16T06:16:18;63358.66;;;10.17;100.00
7832;BME280;3961;42.058;25.586;2022-10-16T06:18:44;63354.84;;;10.16;100.00
7832;BME280;3961;42.058;25.586;2022-10-16T06:21:16;63367.91;;;10.25;100.00
7832;BME280;3961;42.058;25.586;2022-10-16T06:23:42;63389.41;;;10.39;100.00
7832;BME280;3961;42.058;25.586;2022-10-16T06:26:12;63379.81;;;10.33;100.00
7832;BME280;3961;42.058;25.586;2022-10-16T06:28:39;63403.47;;;10.54;100.00
7832;BME280;3961;42.058;25.586;2022-10-16T06:31:06;63424.28;;;10.72;100.00
7832;BME280;3961;42.058;25.586;2022-10-16T06:33:32;63430.63;;;10.77;100.00
7832;BME280;3961;42.058;25.586;2022-10-16T06:36:06;63459.16;;;11.05;100.00
7832;BME280;3961;42.058;25.586;2022-10-16T06:38:33;63467.84;;;11.13;100.00
7832;BME280;3961;42.058;25.586;2022-10-16T06:40:59;63486.69;;;11.27;100.00
7832;BME280;3961;42.058;25.586;2022-10-16T06:43:24;63504.00;;;11.42;100.00
7832;BME280;3961;42.058;25.586;2022-10-16T06:45:54;63493.03;;;11.32;100.00
7832;BME280;3961;42.058;25.586;2022-10-16T06:48:20;63504.25;;;11.44;100.00
7832;BME280;3961;42.058;25.586;2022-10-16T06:51:00;63515.81;;;11.55;100.00
7832;BME280;3961;42.058;25.586;2022-10-16T06:53:28;63518.69;;;11.57;100.00
7832;BME280;3961;42.058;25.586;2022-10-16T06:55:54;63510.03;;;11.50;100.00
7832;BME280;3961;42.058;25.586;2022-10-16T06:58:20;63526.81;;;11.64;100.00
7832;BME280;3961;42.058;25.586;2022-10-16T07:00:45;63527.63;;;11.67;100.00
7832;BME280;3961;42.058;25.586;2022-10-16T07:03:11;63550.06;;;11.80;100.00
7832;BME280;3961;42.058;25.586;2022-10-16T07:05:41;63566.38;;;12.01;100.00
7832;BME280;3961;42.058;25.586;2022-10-16T07:08:07;63579.22;;;12.08;100.00
7832;BME280;3961;42.058;25.586;2022-10-16T07:10:33;63602.59;;;12.31;100.00
7832;BME280;3961;42.058;25.586;2022-10-16T07:12:59;63621.22;;;12.42;100.00
7832;BME280;3961;42.058;25.586;2022-10-16T07:15:25;63619.13;;;12.43;100.00
7832;BME280;3961;42.058;25.586;2022-10-16T07:17:51;63630.72;;;12.53;100.00
7832;BME280;3961;42.058;25.586;2022-10-16T07:20:16;63663.38;;;12.84;100.00
7832;BME280;3961;42.058;25.586;2022-10-16T07:22:42;63669.72;;;12.90;99.68
7832;BME280;3961;42.058;25.586;2022-10-16T07:25:08;63702.75;;;13.19;97.94
7832;BME280;3961;42.058;25.586;2022-10-16T07:27:33;63695.22;;;13.12;98.68
7832;BME280;3961;42.058;25.586;2022-10-16T07:29:59;63728.25;;;13.41;97.49
7832;BME280;3961;42.058;25.586;2022-10-16T07:32:25;63734.63;;;13.47;96.91
7832;BME280;3961;42.058;25.586;2022-10-16T07:34:51;63768.81;;;13.76;95.73
7832;BME280;3961;42.058;25.586;2022-10-16T07:37:17;63782.13;;;13.88;95.08
7832;BME280;3961;42.058;25.586;2022-10-16T07:39:43;63809.50;;;14.07;94.37
7832;BME280;3961;42.058;25.586;2022-10-16T07:42:08;63819.34;;;14.16;91.84
7832;BME280;3961;42.058;25.586;2022-10-16T07:44:33;63830.03;;;14.28;91.35
7832;BME280;3961;42.058;25.586;2022-10-16T07:46:59;63854.88;;;14.54;90.78
7832;BME280;3961;42.058;25.586;2022-10-16T07:49:24;63902.09;;;14.86;88.98
7832;BME280;3961;42.058;25.586;2022-10-16T07:51:50;63912.78;;;14.98;87.99
7832;BME280;3961;42.058;25.586;2022-10-16T07:54:16;63930.31;;;15.20;86.59
7832;BME280;3961;42.058;25.586;2022-10-16T07:56:41;63967.56;;;15.48;85.58
7832;BME280;3961;42.058;25.586;2022-10-16T07:59:07;63993.72;;;15.71;83.15
7832;BME280;3961;42.058;25.586;2022-10-16T08:01:33;64025.91;;;16.01;80.32
7832;BME280;3961;42.058;25.586;2022-10-16T08:03:58;64053.22;;;16.25;80.70
7832;BME280;3961;42.058;25.586;2022-10-16T08:06:24;64099.47;;;16.63;79.01
7832;BME280;3961;42.058;25.586;2022-10-16T08:08:49;64137.31;;;16.96;77.63
7832;BME280;3961;42.058;25.586;2022-10-16T08:11:15;64152.06;;;17.11;76.06
7832;BME280;3961;42.058;25.586;2022-10-16T08:13:41;64189.31;;;17.44;73.88
7832;BME280;3961;42.058;25.586;2022-10-16T08:16:07;64190.59;;;17.40;71.05
7832;BME280;3961;42.058;25.586;2022-10-16T08:18:36;64136.72;;;16.96;73.07
7832;BME280;3961;42.058;25.586;2022-10-16T08:21:03;64183.63;;;17.34;71.06
7832;BME280;3961;42.058;25.586;2022-10-16T08:23:30;64154.88;;;17.07;66.89
7832;BME280;3961;42.058;25.586;2022-10-16T08:26:00;64176.50;;;17.33;67.25
7832;BME280;3961;42.058;25.586;2022-10-16T08:28:26;64185.25;;;17.40;67.81
7832;BME280;3961;42.058;25.586;2022-10-16T08:30:52;64166.41;;;17.22;66.95
7832;BME280;3961;42.058;25.586;2022-10-16T08:33:18;64132.41;;;16.90;68.98
7832;BME280;3961;42.058;25.586;2022-10-16T08:35:50;64139.63;;;16.98;69.13
7832;BME280;3961;42.058;25.586;2022-10-16T08:38:16;64146.03;;;17.04;68.81
7832;BME280;3961;42.058;25.586;2022-10-16T08:40:42;64155.81;;;17.17;68.15
7832;BME280;3961;42.058;25.586;2022-10-16T08:43:34;64161.16;;;17.17;67.93
7832;BME280;3961;42.058;25.586;2022-10-16T08:48:57;64210.03;;;17.60;66.09
7832;BME280;3961;42.058;25.586;2022-10-16T08:51:26;64182.91;;;17.38;67.13
7832;BME280;3961;42.058;25.586;2022-10-16T08:53:57;64230.66;;;17.80;64.10
7832;BME280;3961;42.058;25.586;2022-10-16T08:56:25;64219.94;;;17.68;64.68
7832;BME280;3961;42.058;25.586;2022-10-16T08:58:52;64260.13;;;18.03;63.09
7832;BME280;3961;42.058;25.586;2022-10-16T09:01:20;64243.22;;;17.89;62.88
7832;BME280;3961;42.058;25.586;2022-10-16T09:06:46;64286.09;;;18.24;61.96
7832;BME280;3961;42.058;25.586;2022-10-16T09:14:18;64254.50;;;18.01;60.47
7832;BME280;3961;42.058;25.586;2022-10-16T09:17:00;64208.28;;;17.58;61.47
7832;BME280;3961;42.058;25.586;2022-10-16T09:19:38;64192.56;;;17.44;62.73
7832;BME280;3961;42.058;25.586;2022-10-16T09:22:15;64188.72;;;17.43;61.97
7832;BME280;3961;42.058;25.586;2022-10-16T09:24:41;64214.69;;;17.64;61.28
7832;BME280;3961;42.058;25.586;2022-10-16T09:27:11;64195.13;;;17.49;61.88
7832;BME280;3961;42.058;25.586;2022-10-16T09:29:37;64221.47;;;17.67;61.81
7832;BME280;3961;42.058;25.586;2022-10-16T09:32:18;64280.50;;;18.21;60.02
7832;BME280;3961;42.058;25.586;2022-10-16T09:34:53;64330.59;;;18.65;58.53
7832;BME280;3961;42.058;25.586;2022-10-16T09:37:22;64345.41;;;18.80;57.98
7832;BME280;3961;42.058;25.586;2022-10-16T09:39:52;64376.44;;;19.02;58.20
7832;BME280;3961;42.058;25.586;2022-10-16T09:42:30;64407.19;;;19.34;57.24
7832;BME280;3961;42.058;25.586;2022-10-16T09:44:57;64411.06;;;19.35;56.19
7832;BME280;3961;42.058;25.586;2022-10-16T09:47:24;64440.00;;;19.58;55.94
7832;BME280;3961;42.058;25.586;2022-10-16T09:52:26;64465.69;;;19.80;55.51
7832;BME280;3961;42.058;25.586;2022-10-16T09:54:55;64490.75;;;20.02;55.23
7832;BME280;3961;42.058;25.586;2022-10-16T09:57:21;64470.56;;;19.87;53.78
7832;BME280;3961;42.058;25.586;2022-10-16T09:59:57;64452.84;;;19.69;54.52
7832;BME280;3961;42.058;25.586;2022-10-16T10:02:30;64433.81;;;19.55;54.04
7832;BME280;3961;42.058;25.586;2022-10-16T10:04:56;64420.16;;;19.40;53.64
7832;BME280;3961;42.058;25.586;2022-10-16T10:07:35;64362.44;;;18.90;54.43
7832;BME280;3961;42.058;25.586;2022-10-16T10:10:04;64382.84;;;19.08;55.36
7832;BME280;3961;42.058;25.586;2022-10-16T10:12:31;64423.31;;;19.45;54.82
7832;BME280;3961;42.058;25.586;2022-10-16T10:15:04;64436.13;;;19.57;54.07
7832;BME280;3961;42.058;25.586;2022-10-16T10:17:30;64455.41;;;19.73;53.48
7832;BME280;3961;42.058;25.586;2022-10-16T10:19:59;64485.72;;;20.00;52.84
7832;BME280;3961;42.058;25.586;2022-10-16T10:33:24;64445.25;;;19.62;53.25
7832;BME280;3961;42.058;25.586;2022-10-16T10:38:54;64414.91;;;19.36;52.38
7832;BME280;3961;42.058;25.586;2022-10-16T10:50:43;64398.78;;;19.24;51.76
7832;BME280;3961;42.058;25.586;2022-10-16T10:53:24;64407.91;;;19.30;52.41
7832;BME280;3961;42.058;25.586;2022-10-16T10:56:00;64414.31;;;19.35;50.77
7832;BME280;3961;42.058;25.586;2022-10-16T11:01:13;64504.78;;;20.14;48.48
7832;BME280;3961;42.058;25.586;2022-10-16T11:06:52;64472.31;;;19.88;47.64
7832;BME280;3961;42.058;25.586;2022-10-16T11:09:25;64487.47;;;20.01;46.27
7832;BME280;3961;42.058;25.586;2022-10-16T11:11:59;64447.22;;;19.66;46.51
7832;BME280;3961;42.058;25.586;2022-10-16T11:14:31;64431.22;;;19.50;46.51
7832;BME280;3961;42.058;25.586;2022-10-16T11:17:21;64411.06;;;19.35;46.84
7832;BME280;3961;42.058;25.586;2022-10-16T11:20:05;64399.59;;;19.27;47.08
7832;BME280;3961;42.058;25.586;2022-10-16T11:22:41;64426.44;;;19.51;46.18
7832;BME280;3961;42.058;25.586;2022-10-16T11:25:21;64438.25;;;19.56;45.66
7832;BME280;3961;42.058;25.586;2022-10-16T11:28:09;64412.00;;;19.33;45.99
7832;BME280;3961;42.058;25.586;2022-10-16T11:39:20;64443.84;;;19.59;40.61
7832;BME280;3961;42.058;25.586;2022-10-16T11:41:52;64450.16;;;19.69;40.94
7832;BME280;3961;42.058;25.586;2022-10-16T11:47:27;64475.81;;;19.91;41.37
7832;BME280;3961;42.058;25.586;2022-10-16T11:50:01;64486.66;;;19.98;41.38
7832;BME280;3961;42.058;25.586;2022-10-16T11:52:38;64515.47;;;20.26;40.48
7832;BME280;3961;42.058;25.586;2022-10-16T11:55:18;64530.34;;;20.41;40.83
7832;BME280;3961;42.058;25.586;2022-10-16T11:57:49;64541.56;;;20.46;40.91
7832;BME280;3961;42.058;25.586;2022-10-16T12:03:38;64513.38;;;20.26;40.39
7832;BME280;3961;42.058;25.586;2022-10-16T12:09:04;64542.00;;;20.51;40.05
7832;BME280;3961;42.058;25.586;2022-10-16T12:11:37;64516.66;;;20.27;40.54
7832;BME280;3961;42.058;25.586;2022-10-16T12:14:18;64548.78;;;20.55;40.08
7832;BME280;3961;42.058;25.586;2022-10-16T12:21:44;64555.44;;;20.63;40.32
7832;BME280;3961;42.058;25.586;2022-10-16T12:26:48;64533.38;;;20.39;40.43
7832;BME280;3961;42.058;25.586;2022-10-16T12:31:54;64497.53;;;20.05;41.76
7832;BME280;3961;42.058;25.586;2022-10-16T12:34:27;64467.84;;;19.87;42.26
7832;BME280;3961;42.058;25.586;2022-10-16T12:36:55;64456.56;;;19.74;42.74
7832;BME280;3961;42.058;25.586;2022-10-16T12:39:24;64480.47;;;19.95;42.35
7832;BME280;3961;42.058;25.586;2022-10-16T12:42:19;64498.34;;;20.08;42.76
7832;BME280;3961;42.058;25.586;2022-10-16T12:44:45;64525.78;;;20.32;42.62
7832;BME280;3961;42.058;25.586;2022-10-16T12:47:36;64562.00;;;20.64;41.55
7832;BME280;3961;42.058;25.586;2022-10-16T12:50:21;64532.09;;;20.42;41.85
7832;BME280;3961;42.058;25.586;2022-10-16T12:52:48;64526.94;;;20.33;42.33
7832;BME280;3961;42.058;25.586;2022-10-16T12:55:18;64509.88;;;20.23;42.75
7832;BME280;3961;42.058;25.586;2022-10-16T12:58:06;64526.50;;;20.28;42.18
7832;BME280;3961;42.058;25.586;2022-10-16T13:00:44;64494.84;;;20.05;42.65
7832;BME280;3961;42.058;25.586;2022-10-16T13:06:08;64475.81;;;19.91;43.10
7832;BME280;3961;42.058;25.586;2022-10-16T13:22:33;64505.56;;;20.17;42.25
7832;BME280;3961;42.058;25.586;2022-10-16T13:28:01;64480.69;;;19.98;41.92
7832;BME280;3961;42.058;25.586;2022-10-16T13:30:30;64459.13;;;19.79;42.92
7832;BME280;3961;42.058;25.586;2022-10-16T13:33:19;64454.09;;;19.77;42.51
7832;BME280;3961;42.058;25.586;2022-10-16T13:35:54;64455.03;;;19.75;42.25
7832;BME280;3961;42.058;25.586;2022-10-16T13:38:28;64480.84;;;19.93;42.57
7832;BME280;3961;42.058;25.586;2022-10-16T13:41:05;64506.13;;;20.18;41.96
7832;BME280;3961;42.058;25.586;2022-10-16T13:46:07;64463.56;;;19.81;40.47
7832;BME280;3961;42.058;25.586;2022-10-16T13:48:36;64459.47;;;19.77;40.40
7832;BME280;3961;42.058;25.586;2022-10-16T13:51:20;64452.25;;;19.68;40.27
7832;BME280;3961;42.058;25.586;2022-10-16T13:53:45;64445.25;;;19.62;39.91
7832;BME280;3961;42.058;25.586;2022-10-16T13:56:22;64462.41;;;19.79;39.46
7832;BME280;3961;42.058;25.586;2022-10-16T13:59:21;64458.31;;;19.76;40.09
7832;BME280;3961;42.058;25.586;2022-10-16T14:01:47;64456.34;;;19.72;39.33
7832;BME280;3961;42.058;25.586;2022-10-16T14:04:15;64453.41;;;19.69;39.12
7832;BME280;3961;42.058;25.586;2022-10-16T14:06:43;64450.63;;;19.62;39.64
7832;BME280;3961;42.058;25.586;2022-10-16T14:11:54;64454.94;;;19.68;39.25
7832;BME280;3961;42.058;25.586;2022-10-16T14:14:22;64447.22;;;19.66;39.94
7832;BME280;3961;42.058;25.586;2022-10-16T14:16:47;64455.41;;;19.73;39.98
7832;BME280;3961;42.058;25.586;2022-10-16T14:19:26;64456.56;;;19.74;40.01
7832;BME280;3961;42.058;25.586;2022-10-16T14:21:53;64442.09;;;19.57;40.41
7832;BME280;3961;42.058;25.586;2022-10-16T14:24:36;64446.06;;;19.65;39.65
7832;BME280;3961;42.058;25.586;2022-10-16T14:30:16;64447.81;;;19.67;40.68
7832;BME280;3961;42.058;25.586;2022-10-16T14:32:56;64439.41;;;19.57;40.96
7832;BME280;3961;42.058;25.586;2022-10-16T14:37:59;64414.31;;;19.35;41.20
7832;BME280;3961;42.058;25.586;2022-10-16T14:40:31;64397.03;;;19.23;41.71
7832;BME280;3961;42.058;25.586;2022-10-16T14:42:57;64408.13;;;19.32;41.91
7832;BME280;3961;42.058;25.586;2022-10-16T14:45:27;64396.81;;;19.20;42.07
7832;BME280;3961;42.058;25.586;2022-10-16T14:47:57;64389.84;;;19.14;42.41
7832;BME280;3961;42.058;25.586;2022-10-16T14:50:23;64385.75;;;19.10;42.86
7832;BME280;3961;42.058;25.586;2022-10-16T14:52:49;64374.91;;;19.03;43.22
7832;BME280;3961;42.058;25.586;2022-10-16T14:55:15;64369.66;;;18.99;43.28
7832;BME280;3961;42.058;25.586;2022-10-16T14:57:42;64368.84;;;18.96;43.04
7832;BME280;3961;42.058;25.586;2022-10-16T15:00:16;64360.31;;;18.91;43.45
7832;BME280;3961;42.058;25.586;2022-10-16T15:02:42;64361.84;;;18.90;43.70
7832;BME280;3961;42.058;25.586;2022-10-16T15:05:25;64353.91;;;18.85;43.12
7832;BME280;3961;42.058;25.586;2022-10-16T15:07:52;64337.97;;;18.69;43.71
7832;BME280;3961;42.058;25.586;2022-10-16T15:10:22;64331.06;;;18.58;43.75
7832;BME280;3961;42.058;25.586;2022-10-16T15:12:48;64312.53;;;18.49;44.59
7832;BME280;3961;42.058;25.586;2022-10-16T15:15:27;64305.19;;;18.45;44.45
7832;BME280;3961;42.058;25.586;2022-10-16T15:17:56;64301.81;;;18.37;44.76